Bezoek ook deze websites:

Mijn andere website

Weerstation Noordbergum

Weerstation in Leuven


U vindt ons ook hier:

Weather Underground


METAR rapporten vliegvelden

   
EHGG - Groningen/Eelde, Netherlands
Afstand tot: ONO 18 km
Gewijzigd: 02-03-2021 17:25
Helder  
Helder  
   Wind: OZO 7.4 km/h
Wind: OZO 7.4 km/h
Temperatuur: 12°C
Dauwpunt: 5°C
Vochtigheid: 63%
Barometer: 1030 hPa
Bewolking: Helder
Zicht: meer dan 10 km
Bewolking: Helder
EHGG 021625Z AUTO 11004KT 070V140 9999 NCD 12/05 Q1030 NOSIG
EHLW - Leeuwarden Rnlaf, Netherlands
Afstand tot: WNW 45 km
Gewijzigd: 02-03-2021 17:25
Helder  
Helder  
   Wind: Oosten 11.1 km/h
Wind: Oosten 11.1 km/h
Temperatuur: 11°C
Dauwpunt: 6°C
Vochtigheid: 72%
Barometer: 1029 hPa
Bewolking: Helder
Zicht: meer dan 10 km
Bewolking: Helder
EHLW 021625Z AUTO 08006KT 020V110 9999 NCD 11/06 Q1029 BLU
EHVL - Vlieland Island, Netherlands
Afstand tot: WNW 98 km
Gewijzigd: 02-03-2021 17:48
Nevel, Helder  
Nevel, Helder  
   Wind: ONO 18.5 km/h
Wind: ONO 18.5 km/h
Temperatuur: 6°C
Voelt als: 3°C
Dauwpunt: 5°C
Vochtigheid: 93%
Barometer: 1029 hPa
Bewolking: Helder
Zicht: 3 km
Bewolking: Helder
EHVL 021648Z AUTO 06010KT 3400 BR NCD 06/05 Q1029 YLO
EHKD - De Kooy (navy), Netherlands
Afstand tot: W 106 km
Gewijzigd: 02-03-2021 17:37
Nevel, Helder  
Nevel, Helder  
   Wind: NO 9.3 km/h
Wind: NO 9.3 km/h
Temperatuur: 6°C
Voelt als: 4°C
Dauwpunt: 5°C
Vochtigheid: 93%
Barometer: 1029 hPa
Bewolking: Helder
Zicht: 5 km
Bewolking: Helder
EHKD 021637Z AUTO 04005KT 4700 BR NCD 06/05 Q1029 GRN TEMPO 4000 BR
EHDL - Deelen Rnlafb, Netherlands
Afstand tot: ZZW 112 km
Gewijzigd: 02-03-2021 17:38
Helder  
Helder  
   Wind: ZO 9.3 km/h
Wind: ZO 9.3 km/h
Temperatuur: 14°C
Dauwpunt: 4°C
Vochtigheid: 51%
Barometer: 1028 hPa
Bewolking: Helder
Zicht: meer dan 10 km
Bewolking: Helder
EHDL 021638Z AUTO 14005KT 110V180 9999 NCD 14/04 Q1028 BLU
EHAM - Amsterdam/Schiph, Netherlands
Afstand tot: ZW 132 km
Gewijzigd: 02-03-2021 17:25
Helder  
Helder  
   Wind: Oosten 7.4 km/h
Wind: Oosten 7.4 km/h
Temperatuur: 12°C
Dauwpunt: 6°C
Vochtigheid: 67%
Barometer: 1028 hPa
Zicht: meer dan 10 km
Bewolking: Helder
EHAM 021625Z 08004KT CAVOK 12/06 Q1028 NOSIG

Script ontwikkeld door  Saratoga-weather.org Aangepast voor de template door  Weerstation Leuven

Apparatuur in gebruik:

Weerstation
Davis VP2

Weerprogramma
Meteobridge

Weercomputer
TP-link TL-MR3020

Webleverancier
Versio

Davis VP2

Meteobridge

TP-link TL-MR3020

Versio